sensor_id;sensor_type;location;lat;lon;timestamp;pressure;altitude;pressure_sealevel;temperature;humidity
61573;BME280;47465;43.094;12.434;2022-09-12T00:01:49;98684.72;;;15.91;76.97
61573;BME280;47465;43.094;12.434;2022-09-12T00:04:15;98691.09;;;15.89;76.99
61573;BME280;47465;43.094;12.434;2022-09-12T00:06:41;98709.66;;;15.93;77.09
61573;BME280;47465;43.094;12.434;2022-09-12T00:09:08;98698.53;;;15.84;77.78
61573;BME280;47465;43.094;12.434;2022-09-12T00:11:35;98690.47;;;15.84;77.63
61573;BME280;47465;43.094;12.434;2022-09-12T00:14:02;98699.44;;;15.82;78.39
61573;BME280;47465;43.094;12.434;2022-09-12T00:16:32;98710.19;;;16.00;79.33
61573;BME280;47465;43.094;12.434;2022-09-12T00:18:58;98701.72;;;16.09;78.95
61573;BME280;47465;43.094;12.434;2022-09-12T00:21:24;98690.81;;;16.12;78.23
61573;BME280;47465;43.094;12.434;2022-09-12T00:23:50;98691.28;;;16.03;78.96
61573;BME280;47465;43.094;12.434;2022-09-12T00:26:19;98697.16;;;16.11;78.67
61573;BME280;47465;43.094;12.434;2022-09-12T00:28:46;98682.03;;;16.09;79.00
61573;BME280;47465;43.094;12.434;2022-09-12T00:31:13;98685.63;;;16.09;79.00
61573;BME280;47465;43.094;12.434;2022-09-12T00:33:41;98687.09;;;16.15;78.93
61573;BME280;47465;43.094;12.434;2022-09-12T00:36:09;98703.28;;;16.31;78.43
61573;BME280;47465;43.094;12.434;2022-09-12T00:38:35;98696.19;;;16.30;78.96
61573;BME280;47465;43.094;12.434;2022-09-12T00:41:03;98674.25;;;16.21;79.33
61573;BME280;47465;43.094;12.434;2022-09-12T00:43:35;98700.59;;;16.31;78.83
61573;BME280;47465;43.094;12.434;2022-09-12T00:46:05;98695.16;;;16.32;78.56
61573;BME280;47465;43.094;12.434;2022-09-12T00:48:34;98698.16;;;16.26;78.86
61573;BME280;47465;43.094;12.434;2022-09-12T00:51:03;98688.75;;;16.17;79.70
61573;BME280;47465;43.094;12.434;2022-09-12T00:53:29;98678.25;;;16.13;79.00
61573;BME280;47465;43.094;12.434;2022-09-12T00:55:56;98694.28;;;16.32;78.03
61573;BME280;47465;43.094;12.434;2022-09-12T00:58:25;98681.66;;;16.34;78.71
61573;BME280;47465;43.094;12.434;2022-09-12T01:00:52;98668.09;;;16.19;78.80
61573;BME280;47465;43.094;12.434;2022-09-12T01:03:19;98676.38;;;16.15;79.75
61573;BME280;47465;43.094;12.434;2022-09-12T01:05:51;98679.38;;;16.09;80.35
61573;BME280;47465;43.094;12.434;2022-09-12T01:08:19;98680.31;;;16.08;80.63
61573;BME280;47465;43.094;12.434;2022-09-12T01:10:47;98668.25;;;15.99;82.24
61573;BME280;47465;43.094;12.434;2022-09-12T01:13:13;98664.91;;;15.94;81.11
61573;BME280;47465;43.094;12.434;2022-09-12T01:15:39;98677.06;;;15.84;81.31
61573;BME280;47465;43.094;12.434;2022-09-12T01:18:11;98672.31;;;15.71;81.89
61573;BME280;47465;43.094;12.434;2022-09-12T01:21:02;98674.91;;;15.54;82.72
61573;BME280;47465;43.094;12.434;2022-09-12T01:30:00;98682.91;;;15.17;83.74
61573;BME280;47465;43.094;12.434;2022-09-12T01:32:37;98688.63;;;15.10;84.25
61573;BME280;47465;43.094;12.434;2022-09-12T01:35:13;98682.03;;;14.98;84.68
61573;BME280;47465;43.094;12.434;2022-09-12T01:37:52;98690.22;;;14.95;84.97
61573;BME280;47465;43.094;12.434;2022-09-12T01:40:27;98680.13;;;14.81;85.69
61573;BME280;47465;43.094;12.434;2022-09-12T01:43:02;98679.47;;;14.76;86.08
61573;BME280;47465;43.094;12.434;2022-09-12T01:45:38;98674.91;;;14.78;86.16
61573;BME280;47465;43.094;12.434;2022-09-12T01:48:11;98676.78;;;14.76;86.39
61573;BME280;47465;43.094;12.434;2022-09-12T01:50:43;98663.03;;;14.65;86.44
61573;BME280;47465;43.094;12.434;2022-09-12T01:53:14;98679.03;;;14.66;87.48
61573;BME280;47465;43.094;12.434;2022-09-12T01:55:44;98664.34;;;14.54;86.95
61573;BME280;47465;43.094;12.434;2022-09-12T01:58:13;98667.03;;;14.54;87.72
61573;BME280;47465;43.094;12.434;2022-09-12T02:00:46;98679.69;;;14.51;87.84
61573;BME280;47465;43.094;12.434;2022-09-12T02:03:17;98667.66;;;14.41;88.26
61573;BME280;47465;43.094;12.434;2022-09-12T02:05:49;98670.81;;;14.30;88.43
61573;BME280;47465;43.094;12.434;2022-09-12T02:08:19;98677.66;;;14.35;88.86
61573;BME280;47465;43.094;12.434;2022-09-12T02:10:51;98674.69;;;14.23;89.12
61573;BME280;47465;43.094;12.434;2022-09-12T02:13:21;98659.09;;;14.12;89.05
61573;BME280;47465;43.094;12.434;2022-09-12T02:15:51;98665.97;;;14.17;89.55
61573;BME280;47465;43.094;12.434;2022-09-12T02:18:23;98666.13;;;14.14;89.96
61573;BME280;47465;43.094;12.434;2022-09-12T02:20:52;98660.22;;;14.06;91.32
61573;BME280;47465;43.094;12.434;2022-09-12T02:23:21;98669.72;;;14.13;91.44
61573;BME280;47465;43.094;12.434;2022-09-12T02:25:51;98647.00;;;14.03;92.46
61573;BME280;47465;43.094;12.434;2022-09-12T02:28:23;98668.13;;;14.30;92.91
61573;BME280;47465;43.094;12.434;2022-09-12T02:30:56;98667.06;;;14.34;92.20
61573;BME280;47465;43.094;12.434;2022-09-12T02:33:29;98658.16;;;14.33;92.59
61573;BME280;47465;43.094;12.434;2022-09-12T02:36:01;98660.00;;;14.52;91.84
61573;BME280;47465;43.094;12.434;2022-09-12T02:38:34;98647.75;;;14.46;90.94
61573;BME280;47465;43.094;12.434;2022-09-12T02:41:02;98654.88;;;14.47;90.83
61573;BME280;47465;43.094;12.434;2022-09-12T02:43:28;98664.31;;;14.56;90.93
61573;BME280;47465;43.094;12.434;2022-09-12T02:45:54;98659.41;;;14.45;90.61
61573;BME280;47465;43.094;12.434;2022-09-12T02:48:22;98669.47;;;14.40;91.99
61573;BME280;47465;43.094;12.434;2022-09-12T02:50:52;98664.22;;;14.37;92.62
61573;BME280;47465;43.094;12.434;2022-09-12T02:53:18;98637.91;;;14.28;92.78
61573;BME280;47465;43.094;12.434;2022-09-12T02:55:44;98668.31;;;14.46;92.72
61573;BME280;47465;43.094;12.434;2022-09-12T02:58:12;98659.63;;;14.41;92.88
61573;BME280;47465;43.094;12.434;2022-09-12T03:00:43;98652.63;;;14.38;92.79
61573;BME280;47465;43.094;12.434;2022-09-12T03:03:35;98675.88;;;14.56;92.51
61573;BME280;47465;43.094;12.434;2022-09-12T03:06:09;98673.53;;;14.49;92.18
61573;BME280;47465;43.094;12.434;2022-09-12T03:08:52;98674.63;;;14.45;92.06
61573;BME280;47465;43.094;12.434;2022-09-12T03:11:39;98672.06;;;14.42;92.38
61573;BME280;47465;43.094;12.434;2022-09-12T03:14:16;98664.66;;;14.28;93.65
61573;BME280;47465;43.094;12.434;2022-09-12T03:16:52;98652.34;;;14.24;94.25
61573;BME280;47465;43.094;12.434;2022-09-12T03:19:24;98664.75;;;14.25;95.05
61573;BME280;47465;43.094;12.434;2022-09-12T03:22:02;98659.63;;;14.20;95.05
61573;BME280;47465;43.094;12.434;2022-09-12T03:24:37;98669.34;;;14.23;95.65
61573;BME280;47465;43.094;12.434;2022-09-12T03:27:08;98665.06;;;14.18;95.01
61573;BME280;47465;43.094;12.434;2022-09-12T03:29:37;98672.34;;;14.15;95.15
61573;BME280;47465;43.094;12.434;2022-09-12T03:32:03;98663.22;;;13.98;96.08
61573;BME280;47465;43.094;12.434;2022-09-12T03:34:29;98659.94;;;13.92;96.76
61573;BME280;47465;43.094;12.434;2022-09-12T03:36:57;98665.72;;;13.81;97.18
61573;BME280;47465;43.094;12.434;2022-09-12T03:39:23;98676.38;;;13.83;97.53
61573;BME280;47465;43.094;12.434;2022-09-12T03:41:50;98659.16;;;13.68;98.08
61573;BME280;47465;43.094;12.434;2022-09-12T03:44:16;98664.66;;;13.65;98.71
61573;BME280;47465;43.094;12.434;2022-09-12T03:46:42;98650.72;;;13.56;98.85
61573;BME280;47465;43.094;12.434;2022-09-12T03:49:08;98676.88;;;13.70;99.21
61573;BME280;47465;43.094;12.434;2022-09-12T03:51:35;98662.16;;;13.60;98.86
61573;BME280;47465;43.094;12.434;2022-09-12T03:54:02;98662.28;;;13.57;98.92
61573;BME280;47465;43.094;12.434;2022-09-12T03:56:28;98681.53;;;13.65;99.02
61573;BME280;47465;43.094;12.434;2022-09-12T03:58:54;98671.34;;;13.53;99.32
61573;BME280;47465;43.094;12.434;2022-09-12T04:01:20;98664.53;;;13.46;99.82
61573;BME280;47465;43.094;12.434;2022-09-12T04:03:47;98667.53;;;13.38;100.00
61573;BME280;47465;43.094;12.434;2022-09-12T04:06:15;98682.47;;;13.42;100.00
61573;BME280;47465;43.094;12.434;2022-09-12T04:08:42;98656.06;;;13.34;100.00
61573;BME280;47465;43.094;12.434;2022-09-12T04:11:12;98676.59;;;13.34;100.00
61573;BME280;47465;43.094;12.434;2022-09-12T04:13:39;98680.06;;;13.36;100.00
61573;BME280;47465;43.094;12.434;2022-09-12T04:16:05;98648.84;;;13.14;100.00
61573;BME280;47465;43.094;12.434;2022-09-12T04:18:32;98665.47;;;13.21;100.00
61573;BME280;47465;43.094;12.434;2022-09-12T04:21:02;98674.34;;;13.22;100.00
61573;BME280;47465;43.094;12.434;2022-09-12T04:23:28;98656.09;;;13.11;100.00
61573;BME280;47465;43.094;12.434;2022-09-12T04:25:54;98673.59;;;13.18;100.00
61573;BME280;47465;43.094;12.434;2022-09-12T04:28:22;98686.84;;;13.21;100.00
61573;BME280;47465;43.094;12.434;2022-09-12T04:30:48;98669.25;;;13.15;100.00
61573;BME280;47465;43.094;12.434;2022-09-12T04:33:14;98681.59;;;13.18;100.00
61573;BME280;47465;43.094;12.434;2022-09-12T04:35:40;98690.41;;;13.20;100.00
61573;BME280;47465;43.094;12.434;2022-09-12T04:38:07;98681.78;;;13.13;100.00
61573;BME280;47465;43.094;12.434;2022-09-12T04:40:33;98682.09;;;13.06;100.00
61573;BME280;47465;43.094;12.434;2022-09-12T04:42:59;98689.16;;;13.07;100.00
61573;BME280;47465;43.094;12.434;2022-09-12T04:45:27;98698.13;;;13.06;100.00
61573;BME280;47465;43.094;12.434;2022-09-12T04:47:52;98689.47;;;12.99;100.00
61573;BME280;47465;43.094;12.434;2022-09-12T04:50:18;98693.88;;;13.00;100.00
61573;BME280;47465;43.094;12.434;2022-09-12T04:52:48;98685.19;;;12.95;100.00
61573;BME280;47465;43.094;12.434;2022-09-12T04:55:14;98699.06;;;13.03;100.00
61573;BME280;47465;43.094;12.434;2022-09-12T04:57:40;98697.63;;;12.94;100.00
61573;BME280;47465;43.094;12.434;2022-09-12T05:00:07;98699.25;;;12.99;100.00
61573;BME280;47465;43.094;12.434;2022-09-12T05:02:35;98701.09;;;12.97;100.00
61573;BME280;47465;43.094;12.434;2022-09-12T05:05:00;98702.06;;;12.95;100.00
61573;BME280;47465;43.094;12.434;2022-09-12T05:07:26;98709.03;;;13.00;100.00
61573;BME280;47465;43.094;12.434;2022-09-12T05:09:52;98710.19;;;12.92;100.00
61573;BME280;47465;43.094;12.434;2022-09-12T05:12:18;98719.69;;;13.00;100.00
61573;BME280;47465;43.094;12.434;2022-09-12T05:14:44;98727.66;;;13.01;100.00
61573;BME280;47465;43.094;12.434;2022-09-12T05:17:10;98721.09;;;13.10;100.00
61573;BME280;47465;43.094;12.434;2022-09-12T05:19:37;98715.63;;;13.13;100.00
61573;BME280;47465;43.094;12.434;2022-09-12T05:22:03;98712.81;;;13.16;100.00
61573;BME280;47465;43.094;12.434;2022-09-12T05:24:31;98728.28;;;13.31;100.00
61573;BME280;47465;43.094;12.434;2022-09-12T05:26:57;98707.97;;;13.27;100.00
61573;BME280;47465;43.094;12.434;2022-09-12T05:29:23;98714.84;;;13.34;100.00
61573;BME280;47465;43.094;12.434;2022-09-12T05:31:49;98722.38;;;13.47;100.00
61573;BME280;47465;43.094;12.434;2022-09-12T05:34:16;98727.41;;;13.54;99.56
61573;BME280;47465;43.094;12.434;2022-09-12T05:36:44;98735.47;;;13.53;99.67
61573;BME280;47465;43.094;12.434;2022-09-12T05:39:10;98741.88;;;13.49;100.00
61573;BME280;47465;43.094;12.434;2022-09-12T05:41:36;98738.03;;;13.56;100.00
61573;BME280;47465;43.094;12.434;2022-09-12T05:44:04;98752.69;;;13.68;99.96
61573;BME280;47465;43.094;12.434;2022-09-12T05:46:31;98716.59;;;13.58;100.00
61573;BME280;47465;43.094;12.434;2022-09-12T05:49:01;98734.50;;;13.77;99.54
61573;BME280;47465;43.094;12.434;2022-09-12T05:51:31;98731.38;;;13.88;99.04
61573;BME280;47465;43.094;12.434;2022-09-12T05:54:00;98746.00;;;14.02;97.52
61573;BME280;47465;43.094;12.434;2022-09-12T05:56:29;98747.25;;;14.13;95.98
61573;BME280;47465;43.094;12.434;2022-09-12T05:58:57;98733.97;;;14.12;95.48
61573;BME280;47465;43.094;12.434;2022-09-12T06:01:24;98741.09;;;14.11;95.21
61573;BME280;47465;43.094;12.434;2022-09-12T06:03:53;98745.53;;;14.12;96.31
61573;BME280;47465;43.094;12.434;2022-09-12T06:06:21;98755.69;;;14.25;95.26
61573;BME280;47465;43.094;12.434;2022-09-12T06:08:48;98733.09;;;14.11;95.92
61573;BME280;47465;43.094;12.434;2022-09-12T06:11:17;98729.91;;;14.24;95.91
61573;BME280;47465;43.094;12.434;2022-09-12T06:13:44;98731.00;;;14.40;94.46
61573;BME280;47465;43.094;12.434;2022-09-12T06:16:12;98714.34;;;14.33;93.75
61573;BME280;47465;43.094;12.434;2022-09-12T06:18:45;98751.13;;;14.49;93.49
61573;BME280;47465;43.094;12.434;2022-09-12T06:21:14;98728.13;;;14.45;93.83
61573;BME280;47465;43.094;12.434;2022-09-12T06:23:41;98726.78;;;14.55;93.48
61573;BME280;47465;43.094;12.434;2022-09-12T06:26:08;98733.00;;;14.76;93.28
61573;BME280;47465;43.094;12.434;2022-09-12T06:28:38;98731.88;;;14.82;91.87
61573;BME280;47465;43.094;12.434;2022-09-12T06:31:06;98739.66;;;15.07;90.85
61573;BME280;47465;43.094;12.434;2022-09-12T06:33:33;98727.78;;;15.12;90.38
61573;BME280;47465;43.094;12.434;2022-09-12T06:36:07;98753.00;;;15.27;89.36
61573;BME280;47465;43.094;12.434;2022-09-12T06:38:33;98761.53;;;15.54;87.80
61573;BME280;47465;43.094;12.434;2022-09-12T06:41:02;98746.53;;;15.50;88.17
61573;BME280;47465;43.094;12.434;2022-09-12T06:43:29;98754.81;;;15.65;88.47
61573;BME280;47465;43.094;12.434;2022-09-12T06:45:57;98753.53;;;15.73;87.29
61573;BME280;47465;43.094;12.434;2022-09-12T06:48:23;98732.81;;;15.77;86.03
61573;BME280;47465;43.094;12.434;2022-09-12T06:50:58;98734.91;;;15.70;84.67
61573;BME280;47465;43.094;12.434;2022-09-12T06:53:26;98730.47;;;15.69;85.58
61573;BME280;47465;43.094;12.434;2022-09-12T06:55:56;98737.97;;;15.99;85.66
61573;BME280;47465;43.094;12.434;2022-09-12T06:58:23;98730.25;;;15.93;84.90
61573;BME280;47465;43.094;12.434;2022-09-12T07:00:49;98718.09;;;15.86;84.26
61573;BME280;47465;43.094;12.434;2022-09-12T07:03:16;98753.53;;;16.10;85.12
61573;BME280;47465;43.094;12.434;2022-09-12T07:05:43;98746.38;;;16.45;85.07
61573;BME280;47465;43.094;12.434;2022-09-12T07:08:09;98728.56;;;16.61;81.78
61573;BME280;47465;43.094;12.434;2022-09-12T07:10:35;98736.66;;;16.95;81.29
61573;BME280;47465;43.094;12.434;2022-09-12T07:13:01;98715.03;;;17.14;79.15
61573;BME280;47465;43.094;12.434;2022-09-12T07:15:27;98730.41;;;17.28;77.92
61573;BME280;47465;43.094;12.434;2022-09-12T07:17:53;98746.03;;;17.53;77.34
61573;BME280;47465;43.094;12.434;2022-09-12T07:20:20;98738.84;;;17.69;75.48
61573;BME280;47465;43.094;12.434;2022-09-12T07:22:47;98721.50;;;17.59;76.60
61573;BME280;47465;43.094;12.434;2022-09-12T07:25:13;98726.16;;;17.71;73.03
61573;BME280;47465;43.094;12.434;2022-09-12T07:27:39;98727.22;;;17.53;75.01
61573;BME280;47465;43.094;12.434;2022-09-12T07:30:06;98726.94;;;17.73;73.00
61573;BME280;47465;43.094;12.434;2022-09-12T07:32:32;98716.81;;;17.78;73.28
61573;BME280;47465;43.094;12.434;2022-09-12T07:34:58;98724.91;;;17.94;73.54
61573;BME280;47465;43.094;12.434;2022-09-12T07:37:29;98719.53;;;18.24;72.15
61573;BME280;47465;43.094;12.434;2022-09-12T07:39:56;98746.69;;;18.66;69.99
61573;BME280;47465;43.094;12.434;2022-09-12T07:42:22;98725.78;;;18.55;70.03
61573;BME280;47465;43.094;12.434;2022-09-12T07:44:48;98724.06;;;18.68;69.33
61573;BME280;47465;43.094;12.434;2022-09-12T07:47:15;98723.44;;;18.79;69.96
61573;BME280;47465;43.094;12.434;2022-09-12T07:49:41;98744.25;;;18.92;69.54
61573;BME280;47465;43.094;12.434;2022-09-12T07:52:07;98741.47;;;19.07;69.73
61573;BME280;47465;43.094;12.434;2022-09-12T07:54:35;98738.31;;;19.15;69.79
61573;BME280;47465;43.094;12.434;2022-09-12T07:57:01;98722.59;;;19.22;69.08
61573;BME280;47465;43.094;12.434;2022-09-12T07:59:26;98733.47;;;19.35;67.26
61573;BME280;47465;43.094;12.434;2022-09-12T08:01:52;98735.16;;;19.64;67.34
61573;BME280;47465;43.094;12.434;2022-09-12T08:04:18;98753.72;;;19.98;67.61
61573;BME280;47465;43.094;12.434;2022-09-12T08:06:45;98742.66;;;20.15;65.45
61573;BME280;47465;43.094;12.434;2022-09-12T08:09:11;98731.91;;;20.28;64.10
61573;BME280;47465;43.094;12.434;2022-09-12T08:11:38;98727.63;;;20.51;64.44
61573;BME280;47465;43.094;12.434;2022-09-12T08:14:04;98736.56;;;20.79;62.73
61573;BME280;47465;43.094;12.434;2022-09-12T08:16:31;98732.13;;;20.90;63.92
61573;BME280;47465;43.094;12.434;2022-09-12T08:18:59;98717.66;;;21.04;63.16
61573;BME280;47465;43.094;12.434;2022-09-12T08:21:27;98731.38;;;21.27;58.76
61573;BME280;47465;43.094;12.434;2022-09-12T08:23:55;98727.81;;;21.01;60.73
61573;BME280;47465;43.094;12.434;2022-09-12T08:26:21;98721.53;;;21.26;60.39
61573;BME280;47465;43.094;12.434;2022-09-12T08:28:49;98728.75;;;21.38;59.38
61573;BME280;47465;43.094;12.434;2022-09-12T08:31:17;98742.06;;;21.67;58.88
61573;BME280;47465;43.094;12.434;2022-09-12T08:33:44;98743.66;;;21.82;57.60
61573;BME280;47465;43.094;12.434;2022-09-12T08:36:11;98738.34;;;22.05;58.71
61573;BME280;47465;43.094;12.434;2022-09-12T08:38:39;98723.25;;;22.13;57.82
61573;BME280;47465;43.094;12.434;2022-09-12T08:41:10;98731.25;;;22.28;57.36
61573;BME280;47465;43.094;12.434;2022-09-12T08:43:51;98743.16;;;22.49;57.01
61573;BME280;47465;43.094;12.434;2022-09-12T08:46:23;98714.72;;;22.55;56.75
61573;BME280;47465;43.094;12.434;2022-09-12T08:48:50;98718.09;;;22.10;56.58
61573;BME280;47465;43.094;12.434;2022-09-12T08:51:17;98741.84;;;22.31;56.78
61573;BME280;47465;43.094;12.434;2022-09-12T08:53:46;98730.00;;;22.56;55.63
61573;BME280;47465;43.094;12.434;2022-09-12T08:56:14;98729.59;;;22.49;55.47
61573;BME280;47465;43.094;12.434;2022-09-12T08:58:43;98721.03;;;22.67;55.23
61573;BME280;47465;43.094;12.434;2022-09-12T09:01:16;98733.31;;;22.60;53.46
61573;BME280;47465;43.094;12.434;2022-09-12T09:09:47;98744.75;;;22.98;52.75
61573;BME280;47465;43.094;12.434;2022-09-12T09:12:22;98732.09;;;22.64;52.30
61573;BME280;47465;43.094;12.434;2022-09-12T09:15:05;98744.72;;;22.87;51.16
61573;BME280;47465;43.094;12.434;2022-09-12T09:17:40;98737.97;;;22.93;52.27
61573;BME280;47465;43.094;12.434;2022-09-12T09:20:16;98737.06;;;23.05;50.33
61573;BME280;47465;43.094;12.434;2022-09-12T09:22:49;98718.56;;;23.33;49.92
61573;BME280;47465;43.094;12.434;2022-09-12T09:25:19;98739.91;;;23.49;48.30
61573;BME280;47465;43.094;12.434;2022-09-12T09:27:51;98723.84;;;23.57;47.88
61573;BME280;47465;43.094;12.434;2022-09-12T09:30:19;98725.47;;;23.82;47.26
61573;BME280;47465;43.094;12.434;2022-09-12T09:32:50;98724.53;;;24.04;47.23
61573;BME280;47465;43.094;12.434;2022-09-12T09:35:21;98720.66;;;23.86;46.39
61573;BME280;47465;43.094;12.434;2022-09-12T09:38:13;98719.69;;;24.19;45.42
61573;BME280;47465;43.094;12.434;2022-09-12T09:40:45;98718.00;;;24.39;45.42
61573;BME280;47465;43.094;12.434;2022-09-12T09:43:20;98718.06;;;24.60;44.57
61573;BME280;47465;43.094;12.434;2022-09-12T09:45:47;98714.66;;;24.68;43.05
61573;BME280;47465;43.094;12.434;2022-09-12T09:48:18;98695.91;;;24.32;42.52
61573;BME280;47465;43.094;12.434;2022-09-12T09:50:47;98717.66;;;24.65;40.85
61573;BME280;47465;43.094;12.434;2022-09-12T09:53:25;98705.97;;;24.74;41.03
61573;BME280;47465;43.094;12.434;2022-09-12T09:55:54;98714.13;;;24.95;39.73
61573;BME280;47465;43.094;12.434;2022-09-12T09:58:28;98712.75;;;25.00;36.67
61573;BME280;47465;43.094;12.434;2022-09-12T10:00:57;98699.00;;;25.02;38.11
61573;BME280;47465;43.094;12.434;2022-09-12T10:03:29;98710.50;;;25.15;37.39
61573;BME280;47465;43.094;12.434;2022-09-12T10:05:59;98709.88;;;25.23;39.12
61573;BME280;47465;43.094;12.434;2022-09-12T10:08:27;98702.56;;;25.24;35.65
61573;BME280;47465;43.094;12.434;2022-09-12T10:10:55;98701.91;;;25.10;34.60
61573;BME280;47465;43.094;12.434;2022-09-12T10:13:31;98696.28;;;25.23;34.00
61573;BME280;47465;43.094;12.434;2022-09-12T10:16:00;98707.19;;;25.33;30.66
61573;BME280;47465;43.094;12.434;2022-09-12T10:18:40;98684.25;;;25.26;32.57
61573;BME280;47465;43.094;12.434;2022-09-12T10:21:17;98700.03;;;25.32;32.62
61573;BME280;47465;43.094;12.434;2022-09-12T10:23:44;98703.06;;;25.38;30.89
61573;BME280;47465;43.094;12.434;2022-09-12T10:26:12;98684.56;;;25.32;26.84
61573;BME280;47465;43.094;12.434;2022-09-12T10:28:40;98687.91;;;25.46;29.02
61573;BME280;47465;43.094;12.434;2022-09-12T10:31:07;98687.69;;;25.28;30.07
61573;BME280;47465;43.094;12.434;2022-09-12T10:33:41;98675.09;;;25.06;30.62
61573;BME280;47465;43.094;12.434;2022-09-12T10:36:08;98674.69;;;25.10;32.62
61573;BME280;47465;43.094;12.434;2022-09-12T10:38:34;98680.06;;;25.21;31.36
61573;BME280;47465;43.094;12.434;2022-09-12T10:41:02;98682.59;;;25.44;33.17
61573;BME280;47465;43.094;12.434;2022-09-12T10:43:29;98690.66;;;25.55;32.87
61573;BME280;47465;43.094;12.434;2022-09-12T10:45:59;98678.94;;;25.65;31.26
61573;BME280;47465;43.094;12.434;2022-09-12T10:48:47;98674.63;;;25.72;30.00
61573;BME280;47465;43.094;12.434;2022-09-12T10:51:26;98670.06;;;25.72;27.62
61573;BME280;47465;43.094;12.434;2022-09-12T10:53:53;98665.66;;;25.81;29.03
61573;BME280;47465;43.094;12.434;2022-09-12T10:56:22;98665.81;;;25.89;25.17
61573;BME280;47465;43.094;12.434;2022-09-12T10:59:05;98663.47;;;25.75;25.31
61573;BME280;47465;43.094;12.434;2022-09-12T11:01:39;98663.59;;;25.64;25.46
61573;BME280;47465;43.094;12.434;2022-09-12T11:04:27;98667.78;;;25.77;26.47
61573;BME280;47465;43.094;12.434;2022-09-12T11:07:18;98653.72;;;25.82;26.82
61573;BME280;47465;43.094;12.434;2022-09-12T11:09:50;98663.09;;;25.89;25.59
61573;BME280;47465;43.094;12.434;2022-09-12T11:12:26;98661.53;;;25.96;26.67
61573;BME280;47465;43.094;12.434;2022-09-12T11:15:06;98660.38;;;25.99;26.68
61573;BME280;47465;43.094;12.434;2022-09-12T11:17:43;98660.69;;;26.06;29.15
61573;BME280;47465;43.094;12.434;2022-09-12T11:20:34;98659.09;;;26.13;27.92
61573;BME280;47465;43.094;12.434;2022-09-12T11:26:14;98651.50;;;26.07;24.36
61573;BME280;47465;43.094;12.434;2022-09-12T11:28:49;98643.63;;;26.13;26.12
61573;BME280;47465;43.094;12.434;2022-09-12T11:34:36;98653.81;;;26.11;23.66
61573;BME280;47465;43.094;12.434;2022-09-12T11:37:18;98652.34;;;26.17;27.99
61573;BME280;47465;43.094;12.434;2022-09-12T11:39:53;98657.81;;;26.27;29.40
61573;BME280;47465;43.094;12.434;2022-09-12T11:42:25;98641.31;;;26.28;24.33
61573;BME280;47465;43.094;12.434;2022-09-12T11:44:59;98643.72;;;26.41;24.17
61573;BME280;47465;43.094;12.434;2022-09-12T11:47:28;98620.22;;;26.30;25.25
61573;BME280;47465;43.094;12.434;2022-09-12T11:49:58;98635.28;;;26.44;24.11
61573;BME280;47465;43.094;12.434;2022-09-12T11:52:35;98628.53;;;26.48;24.22
61573;BME280;47465;43.094;12.434;2022-09-12T11:55:05;98625.81;;;26.48;26.47
61573;BME280;47465;43.094;12.434;2022-09-12T11:57:37;98634.84;;;26.58;25.66
61573;BME280;47465;43.094;12.434;2022-09-12T12:00:14;98632.38;;;26.65;25.08
61573;BME280;47465;43.094;12.434;2022-09-12T12:02:50;98630.94;;;26.71;22.64
61573;BME280;47465;43.094;12.434;2022-09-12T12:05:23;98623.63;;;26.71;22.85
61573;BME280;47465;43.094;12.434;2022-09-12T12:07:53;98604.56;;;26.61;22.33
61573;BME280;47465;43.094;12.434;2022-09-12T12:10:31;98602.13;;;26.58;23.14
61573;BME280;47465;43.094;12.434;2022-09-12T12:12:59;98617.63;;;26.58;20.62
61573;BME280;47465;43.094;12.434;2022-09-12T12:15:27;98605.25;;;26.54;22.58
61573;BME280;47465;43.094;12.434;2022-09-12T12:18:04;98593.50;;;26.53;21.91
61573;BME280;47465;43.094;12.434;2022-09-12T12:20:31;98598.66;;;26.66;20.43
61573;BME280;47465;43.094;12.434;2022-09-12T12:22:58;98599.50;;;26.76;19.28
61573;BME280;47465;43.094;12.434;2022-09-12T12:25:38;98585.16;;;26.74;19.54
61573;BME280;47465;43.094;12.434;2022-09-12T12:28:04;98590.28;;;26.77;21.90
61573;BME280;47465;43.094;12.434;2022-09-12T12:30:58;98603.56;;;27.00;19.80
61573;BME280;47465;43.094;12.434;2022-09-12T12:36:40;98596.59;;;26.88;21.57
61573;BME280;47465;43.094;12.434;2022-09-12T12:46:08;98590.16;;;26.79;23.87
61573;BME280;47465;43.094;12.434;2022-09-12T12:48:51;98598.28;;;26.89;21.44
61573;BME280;47465;43.094;12.434;2022-09-12T12:51:31;98587.13;;;26.82;22.42
61573;BME280;47465;43.094;12.434;2022-09-12T12:53:58;98581.00;;;26.70;21.24
61573;BME280;47465;43.094;12.434;2022-09-12T12:56:31;98573.09;;;26.67;21.80
61573;BME280;47465;43.094;12.434;2022-09-12T12:59:01;98565.59;;;26.79;21.31
61573;BME280;47465;43.094;12.434;2022-09-12T13:01:29;98573.19;;;26.85;22.75
61573;BME280;47465;43.094;12.434;2022-09-12T13:03:59;98560.41;;;26.86;21.66
61573;BME280;47465;43.094;12.434;2022-09-12T13:06:31;98563.13;;;26.86;22.10
61573;BME280;47465;43.094;12.434;2022-09-12T13:09:02;98562.91;;;27.07;21.15
61573;BME280;47465;43.094;12.434;2022-09-12T13:11:31;98570.56;;;27.21;22.60
61573;BME280;47465;43.094;12.434;2022-09-12T13:14:01;98567.13;;;27.19;23.23
61573;BME280;47465;43.094;12.434;2022-09-12T13:16:35;98571.59;;;27.20;21.87
61573;BME280;47465;43.094;12.434;2022-09-12T13:19:04;98551.53;;;27.11;22.99
61573;BME280;47465;43.094;12.434;2022-09-12T13:21:31;98549.78;;;27.10;22.38
61573;BME280;47465;43.094;12.434;2022-09-12T13:24:01;98557.69;;;27.13;21.65
61573;BME280;47465;43.094;12.434;2022-09-12T13:26:32;98556.19;;;27.29;20.12
61573;BME280;47465;43.094;12.434;2022-09-12T13:29:10;98558.50;;;27.23;21.97
61573;BME280;47465;43.094;12.434;2022-09-12T13:31:37;98555.78;;;27.23;21.60